sensor_id;sensor_type;location;lat;lon;timestamp;P1;durP1;ratioP1;P2;durP2;ratioP2
78991;SDS011;72820;44.838;37.674;2024-02-15T00:00:32;13.90;;;4.00;;
78991;SDS011;72820;44.838;37.674;2024-02-15T00:01:34;13.07;;;4.00;;
78991;SDS011;72820;44.838;37.674;2024-02-15T00:02:36;9.13;;;3.65;;
78991;SDS011;72820;44.838;37.674;2024-02-15T00:03:37;11.30;;;4.47;;
78991;SDS011;72820;44.838;37.674;2024-02-15T00:04:38;10.43;;;3.80;;
78991;SDS011;72820;44.838;37.674;2024-02-15T00:05:40;10.02;;;3.60;;
78991;SDS011;72820;44.838;37.674;2024-02-15T00:06:44;10.35;;;3.70;;
78991;SDS011;72820;44.838;37.674;2024-02-15T00:07:45;9.98;;;4.30;;
78991;SDS011;72820;44.838;37.674;2024-02-15T00:08:49;9.65;;;3.60;;
78991;SDS011;72820;44.838;37.674;2024-02-15T00:09:53;10.93;;;4.50;;
78991;SDS011;72820;44.838;37.674;2024-02-15T00:10:57;9.55;;;3.67;;
78991;SDS011;72820;44.838;37.674;2024-02-15T00:11:58;9.68;;;4.70;;
78991;SDS011;72820;44.838;37.674;2024-02-15T00:13:00;12.15;;;4.55;;
78991;SDS011;72820;44.838;37.674;2024-02-15T00:14:02;9.63;;;3.67;;
78991;SDS011;72820;44.838;37.674;2024-02-15T00:15:03;11.55;;;4.00;;
78991;SDS011;72820;44.838;37.674;2024-02-15T00:16:06;11.50;;;4.10;;
78991;SDS011;72820;44.838;37.674;2024-02-15T00:17:07;7.65;;;3.20;;
78991;SDS011;72820;44.838;37.674;2024-02-15T00:18:09;10.40;;;4.40;;
78991;SDS011;72820;44.838;37.674;2024-02-15T00:19:10;11.07;;;3.90;;
78991;SDS011;72820;44.838;37.674;2024-02-15T00:20:11;11.40;;;3.97;;
78991;SDS011;72820;44.838;37.674;2024-02-15T00:21:13;13.45;;;4.45;;
78991;SDS011;72820;44.838;37.674;2024-02-15T00:22:15;9.63;;;3.60;;
78991;SDS011;72820;44.838;37.674;2024-02-15T00:23:16;11.50;;;4.45;;
78991;SDS011;72820;44.838;37.674;2024-02-15T00:24:17;14.52;;;4.45;;
78991;SDS011;72820;44.838;37.674;2024-02-15T00:25:19;9.52;;;3.65;;
78991;SDS011;72820;44.838;37.674;2024-02-15T00:26:20;11.18;;;4.93;;
78991;SDS011;72820;44.838;37.674;2024-02-15T00:27:21;12.05;;;3.58;;
78991;SDS011;72820;44.838;37.674;2024-02-15T00:28:23;10.50;;;4.47;;
78991;SDS011;72820;44.838;37.674;2024-02-15T00:29:27;11.30;;;4.32;;
78991;SDS011;72820;44.838;37.674;2024-02-15T00:30:29;14.43;;;4.05;;
78991;SDS011;72820;44.838;37.674;2024-02-15T00:31:32;12.30;;;3.53;;
78991;SDS011;72820;44.838;37.674;2024-02-15T00:32:33;11.90;;;3.70;;
78991;SDS011;72820;44.838;37.674;2024-02-15T00:33:35;9.68;;;4.15;;
78991;SDS011;72820;44.838;37.674;2024-02-15T00:34:37;9.77;;;3.67;;
78991;SDS011;72820;44.838;37.674;2024-02-15T00:35:41;11.90;;;4.60;;
78991;SDS011;72820;44.838;37.674;2024-02-15T00:36:43;13.45;;;4.97;;
78991;SDS011;72820;44.838;37.674;2024-02-15T00:37:47;11.38;;;3.97;;
78991;SDS011;72820;44.838;37.674;2024-02-15T00:38:50;10.07;;;3.63;;
78991;SDS011;72820;44.838;37.674;2024-02-15T00:39:52;9.50;;;4.25;;
78991;SDS011;72820;44.838;37.674;2024-02-15T00:40:54;8.88;;;3.58;;
78991;SDS011;72820;44.838;37.674;2024-02-15T00:41:55;9.93;;;3.75;;
78991;SDS011;72820;44.838;37.674;2024-02-15T00:42:56;9.50;;;4.18;;
78991;SDS011;72820;44.838;37.674;2024-02-15T00:43:58;12.07;;;5.18;;
78991;SDS011;72820;44.838;37.674;2024-02-15T00:44:59;12.90;;;4.57;;
78991;SDS011;72820;44.838;37.674;2024-02-15T00:46:01;11.25;;;4.00;;
78991;SDS011;72820;44.838;37.674;2024-02-15T00:47:02;8.63;;;3.75;;
78991;SDS011;72820;44.838;37.674;2024-02-15T00:48:04;13.07;;;3.80;;
78991;SDS011;72820;44.838;37.674;2024-02-15T00:49:07;11.20;;;4.22;;
78991;SDS011;72820;44.838;37.674;2024-02-15T00:50:09;8.82;;;3.47;;
78991;SDS011;72820;44.838;37.674;2024-02-15T00:51:10;11.18;;;4.72;;
78991;SDS011;72820;44.838;37.674;2024-02-15T00:52:12;12.82;;;3.72;;
78991;SDS011;72820;44.838;37.674;2024-02-15T00:53:14;9.48;;;3.75;;
78991;SDS011;72820;44.838;37.674;2024-02-15T00:54:15;14.70;;;4.82;;
78991;SDS011;72820;44.838;37.674;2024-02-15T00:55:17;12.77;;;4.43;;
78991;SDS011;72820;44.838;37.674;2024-02-15T00:56:20;13.32;;;4.00;;
78991;SDS011;72820;44.838;37.674;2024-02-15T00:57:23;12.55;;;4.65;;
78991;SDS011;72820;44.838;37.674;2024-02-15T00:58:24;10.60;;;4.88;;
78991;SDS011;72820;44.838;37.674;2024-02-15T00:59:27;9.52;;;3.42;;
78991;SDS011;72820;44.838;37.674;2024-02-15T01:00:29;9.55;;;4.10;;
78991;SDS011;72820;44.838;37.674;2024-02-15T01:01:30;10.95;;;3.92;;
78991;SDS011;72820;44.838;37.674;2024-02-15T01:02:32;14.70;;;5.25;;
78991;SDS011;72820;44.838;37.674;2024-02-15T01:03:34;13.30;;;4.65;;
78991;SDS011;72820;44.838;37.674;2024-02-15T01:04:36;9.95;;;5.03;;
78991;SDS011;72820;44.838;37.674;2024-02-15T01:05:37;9.57;;;4.43;;
78991;SDS011;72820;44.838;37.674;2024-02-15T01:06:39;10.32;;;3.92;;
78991;SDS011;72820;44.838;37.674;2024-02-15T01:07:40;11.90;;;3.92;;
78991;SDS011;72820;44.838;37.674;2024-02-15T01:08:42;10.75;;;3.70;;
78991;SDS011;72820;44.838;37.674;2024-02-15T01:09:43;12.85;;;3.75;;
78991;SDS011;72820;44.838;37.674;2024-02-15T01:10:46;10.23;;;3.97;;
78991;SDS011;72820;44.838;37.674;2024-02-15T01:11:47;13.43;;;3.88;;
78991;SDS011;72820;44.838;37.674;2024-02-15T01:12:49;11.07;;;3.72;;
78991;SDS011;72820;44.838;37.674;2024-02-15T01:13:50;12.35;;;4.53;;
78991;SDS011;72820;44.838;37.674;2024-02-15T01:14:52;13.43;;;4.68;;
78991;SDS011;72820;44.838;37.674;2024-02-15T01:15:53;12.50;;;4.30;;
78991;SDS011;72820;44.838;37.674;2024-02-15T01:16:55;10.07;;;3.72;;
78991;SDS011;72820;44.838;37.674;2024-02-15T01:17:56;14.27;;;5.15;;
78991;SDS011;72820;44.838;37.674;2024-02-15T01:18:57;10.23;;;4.05;;
78991;SDS011;72820;44.838;37.674;2024-02-15T01:19:59;13.95;;;4.88;;
78991;SDS011;72820;44.838;37.674;2024-02-15T01:21:00;10.55;;;4.32;;
78991;SDS011;72820;44.838;37.674;2024-02-15T01:22:01;11.57;;;4.15;;
78991;SDS011;72820;44.838;37.674;2024-02-15T01:23:03;10.05;;;3.50;;
78991;SDS011;72820;44.838;37.674;2024-02-15T01:24:08;10.73;;;3.85;;
78991;SDS011;72820;44.838;37.674;2024-02-15T01:25:09;10.95;;;3.78;;
78991;SDS011;72820;44.838;37.674;2024-02-15T01:26:12;12.65;;;4.35;;
78991;SDS011;72820;44.838;37.674;2024-02-15T01:27:15;17.38;;;4.35;;
78991;SDS011;72820;44.838;37.674;2024-02-15T01:28:17;10.20;;;3.70;;
78991;SDS011;72820;44.838;37.674;2024-02-15T01:29:19;10.32;;;4.13;;
78991;SDS011;72820;44.838;37.674;2024-02-15T01:30:21;10.07;;;3.47;;
78991;SDS011;72820;44.838;37.674;2024-02-15T01:31:22;22.45;;;3.88;;
78991;SDS011;72820;44.838;37.674;2024-02-15T01:32:24;9.98;;;4.18;;
78991;SDS011;72820;44.838;37.674;2024-02-15T01:33:26;11.80;;;5.97;;
78991;SDS011;72820;44.838;37.674;2024-02-15T01:34:28;9.75;;;3.30;;
78991;SDS011;72820;44.838;37.674;2024-02-15T01:35:29;14.82;;;4.53;;
78991;SDS011;72820;44.838;37.674;2024-02-15T01:36:30;10.80;;;4.25;;
78991;SDS011;72820;44.838;37.674;2024-02-15T01:37:32;12.93;;;4.97;;
78991;SDS011;72820;44.838;37.674;2024-02-15T01:38:33;14.02;;;4.95;;
78991;SDS011;72820;44.838;37.674;2024-02-15T01:39:35;14.50;;;4.65;;
78991;SDS011;72820;44.838;37.674;2024-02-15T01:40:36;10.32;;;3.47;;
78991;SDS011;72820;44.838;37.674;2024-02-15T01:41:38;11.07;;;4.85;;
78991;SDS011;72820;44.838;37.674;2024-02-15T01:42:40;14.77;;;4.82;;
78991;SDS011;72820;44.838;37.674;2024-02-15T01:43:44;10.30;;;3.65;;
78991;SDS011;72820;44.838;37.674;2024-02-15T01:44:46;12.13;;;3.88;;
78991;SDS011;72820;44.838;37.674;2024-02-15T01:45:50;10.75;;;3.65;;
78991;SDS011;72820;44.838;37.674;2024-02-15T01:46:51;14.25;;;4.55;;
78991;SDS011;72820;44.838;37.674;2024-02-15T01:47:55;15.68;;;4.70;;
78991;SDS011;72820;44.838;37.674;2024-02-15T01:48:56;10.18;;;4.35;;
78991;SDS011;72820;44.838;37.674;2024-02-15T01:49:58;17.38;;;4.82;;
78991;SDS011;72820;44.838;37.674;2024-02-15T01:51:00;10.60;;;3.97;;
78991;SDS011;72820;44.838;37.674;2024-02-15T01:52:02;10.70;;;4.10;;
78991;SDS011;72820;44.838;37.674;2024-02-15T01:53:06;9.98;;;4.03;;
78991;SDS011;72820;44.838;37.674;2024-02-15T01:54:10;11.20;;;4.38;;
78991;SDS011;72820;44.838;37.674;2024-02-15T01:55:14;14.27;;;4.50;;
78991;SDS011;72820;44.838;37.674;2024-02-15T01:56:17;12.88;;;5.35;;
78991;SDS011;72820;44.838;37.674;2024-02-15T01:57:21;15.30;;;5.00;;
78991;SDS011;72820;44.838;37.674;2024-02-15T01:58:24;11.25;;;4.10;;
78991;SDS011;72820;44.838;37.674;2024-02-15T01:59:27;12.07;;;3.90;;
78991;SDS011;72820;44.838;37.674;2024-02-15T02:00:28;10.13;;;4.18;;
78991;SDS011;72820;44.838;37.674;2024-02-15T02:01:31;17.45;;;5.63;;
78991;SDS011;72820;44.838;37.674;2024-02-15T02:02:36;11.38;;;4.28;;
78991;SDS011;72820;44.838;37.674;2024-02-15T02:03:40;12.55;;;4.30;;
78991;SDS011;72820;44.838;37.674;2024-02-15T02:04:41;9.80;;;4.10;;
78991;SDS011;72820;44.838;37.674;2024-02-15T02:05:43;13.63;;;5.10;;
78991;SDS011;72820;44.838;37.674;2024-02-15T02:06:44;11.65;;;4.93;;
78991;SDS011;72820;44.838;37.674;2024-02-15T02:07:46;11.20;;;4.63;;
78991;SDS011;72820;44.838;37.674;2024-02-15T02:08:48;9.30;;;4.22;;
78991;SDS011;72820;44.838;37.674;2024-02-15T02:09:49;12.43;;;5.13;;
78991;SDS011;72820;44.838;37.674;2024-02-15T02:10:51;8.57;;;3.03;;
78991;SDS011;72820;44.838;37.674;2024-02-15T02:11:53;9.23;;;3.58;;
78991;SDS011;72820;44.838;37.674;2024-02-15T02:12:54;12.00;;;4.50;;
78991;SDS011;72820;44.838;37.674;2024-02-15T02:13:56;13.93;;;5.00;;
78991;SDS011;72820;44.838;37.674;2024-02-15T02:14:57;12.75;;;4.78;;
78991;SDS011;72820;44.838;37.674;2024-02-15T02:15:59;12.40;;;4.28;;
78991;SDS011;72820;44.838;37.674;2024-02-15T02:17:10;9.45;;;4.25;;
78991;SDS011;72820;44.838;37.674;2024-02-15T02:18:14;13.07;;;5.20;;
78991;SDS011;72820;44.838;37.674;2024-02-15T02:19:15;10.13;;;4.78;;
78991;SDS011;72820;44.838;37.674;2024-02-15T02:20:17;11.77;;;4.72;;
78991;SDS011;72820;44.838;37.674;2024-02-15T02:21:19;11.77;;;5.10;;
78991;SDS011;72820;44.838;37.674;2024-02-15T02:22:21;12.82;;;5.30;;
78991;SDS011;72820;44.838;37.674;2024-02-15T02:23:25;11.13;;;4.82;;
78991;SDS011;72820;44.838;37.674;2024-02-15T02:24:27;12.07;;;5.10;;
78991;SDS011;72820;44.838;37.674;2024-02-15T02:25:29;14.32;;;5.78;;
78991;SDS011;72820;44.838;37.674;2024-02-15T02:26:30;13.23;;;5.03;;
78991;SDS011;72820;44.838;37.674;2024-02-15T02:27:32;13.63;;;5.05;;
78991;SDS011;72820;44.838;37.674;2024-02-15T02:28:34;11.65;;;4.55;;
78991;SDS011;72820;44.838;37.674;2024-02-15T02:29:35;11.80;;;5.00;;
78991;SDS011;72820;44.838;37.674;2024-02-15T02:30:36;11.05;;;4.97;;
78991;SDS011;72820;44.838;37.674;2024-02-15T02:31:38;14.30;;;4.75;;
78991;SDS011;72820;44.838;37.674;2024-02-15T02:32:39;14.18;;;5.35;;
78991;SDS011;72820;44.838;37.674;2024-02-15T02:33:41;13.10;;;4.82;;
78991;SDS011;72820;44.838;37.674;2024-02-15T02:34:48;12.07;;;5.07;;
78991;SDS011;72820;44.838;37.674;2024-02-15T02:35:49;12.88;;;4.70;;
78991;SDS011;72820;44.838;37.674;2024-02-15T02:36:50;12.20;;;4.63;;
78991;SDS011;72820;44.838;37.674;2024-02-15T02:37:52;15.82;;;6.07;;
78991;SDS011;72820;44.838;37.674;2024-02-15T02:38:57;15.13;;;5.90;;
78991;SDS011;72820;44.838;37.674;2024-02-15T02:40:01;15.65;;;6.50;;
78991;SDS011;72820;44.838;37.674;2024-02-15T02:41:05;13.10;;;5.70;;
78991;SDS011;72820;44.838;37.674;2024-02-15T02:42:07;13.82;;;5.53;;
78991;SDS011;72820;44.838;37.674;2024-02-15T02:43:08;13.23;;;4.15;;
78991;SDS011;72820;44.838;37.674;2024-02-15T02:44:10;14.60;;;6.07;;
78991;SDS011;72820;44.838;37.674;2024-02-15T02:45:12;14.18;;;5.43;;
78991;SDS011;72820;44.838;37.674;2024-02-15T02:46:14;13.73;;;6.03;;
78991;SDS011;72820;44.838;37.674;2024-02-15T02:47:15;11.93;;;5.15;;
78991;SDS011;72820;44.838;37.674;2024-02-15T02:48:17;11.77;;;5.03;;
78991;SDS011;72820;44.838;37.674;2024-02-15T02:49:19;13.02;;;5.80;;
78991;SDS011;72820;44.838;37.674;2024-02-15T02:50:21;13.45;;;5.80;;
78991;SDS011;72820;44.838;37.674;2024-02-15T02:51:25;16.45;;;5.93;;
78991;SDS011;72820;44.838;37.674;2024-02-15T02:52:27;20.13;;;6.20;;
78991;SDS011;72820;44.838;37.674;2024-02-15T02:53:28;13.90;;;5.78;;
78991;SDS011;72820;44.838;37.674;2024-02-15T02:54:29;13.60;;;5.25;;
78991;SDS011;72820;44.838;37.674;2024-02-15T02:55:31;10.43;;;4.32;;
78991;SDS011;72820;44.838;37.674;2024-02-15T02:56:32;12.20;;;5.25;;
78991;SDS011;72820;44.838;37.674;2024-02-15T02:57:37;13.75;;;5.82;;
78991;SDS011;72820;44.838;37.674;2024-02-15T02:58:39;12.90;;;5.10;;
78991;SDS011;72820;44.838;37.674;2024-02-15T02:59:45;14.02;;;5.22;;
78991;SDS011;72820;44.838;37.674;2024-02-15T03:00:48;16.30;;;5.35;;
78991;SDS011;72820;44.838;37.674;2024-02-15T03:01:50;13.65;;;5.10;;
78991;SDS011;72820;44.838;37.674;2024-02-15T03:02:51;14.05;;;6.05;;
78991;SDS011;72820;44.838;37.674;2024-02-15T03:03:55;17.45;;;5.10;;
78991;SDS011;72820;44.838;37.674;2024-02-15T03:04:57;14.93;;;5.28;;
78991;SDS011;72820;44.838;37.674;2024-02-15T03:06:00;18.00;;;5.10;;
78991;SDS011;72820;44.838;37.674;2024-02-15T03:07:02;17.05;;;6.35;;
78991;SDS011;72820;44.838;37.674;2024-02-15T03:08:03;13.23;;;5.53;;
78991;SDS011;72820;44.838;37.674;2024-02-15T03:09:05;15.20;;;5.93;;
78991;SDS011;72820;44.838;37.674;2024-02-15T03:11:14;14.68;;;6.07;;
78991;SDS011;72820;44.838;37.674;2024-02-15T03:12:15;15.00;;;5.05;;
78991;SDS011;72820;44.838;37.674;2024-02-15T03:13:19;12.88;;;5.00;;
78991;SDS011;72820;44.838;37.674;2024-02-15T03:14:21;14.23;;;5.57;;
78991;SDS011;72820;44.838;37.674;2024-02-15T03:15:22;16.17;;;6.20;;
78991;SDS011;72820;44.838;37.674;2024-02-15T03:16:24;15.95;;;5.50;;
78991;SDS011;72820;44.838;37.674;2024-02-15T03:17:25;15.45;;;5.50;;
78991;SDS011;72820;44.838;37.674;2024-02-15T03:18:27;17.55;;;7.35;;
78991;SDS011;72820;44.838;37.674;2024-02-15T03:19:28;18.60;;;6.00;;
78991;SDS011;72820;44.838;37.674;2024-02-15T03:20:31;11.98;;;5.07;;
78991;SDS011;72820;44.838;37.674;2024-02-15T03:21:34;16.67;;;6.05;;
78991;SDS011;72820;44.838;37.674;2024-02-15T03:22:36;15.90;;;5.70;;
78991;SDS011;72820;44.838;37.674;2024-02-15T03:23:38;13.88;;;5.47;;
78991;SDS011;72820;44.838;37.674;2024-02-15T03:24:40;13.05;;;5.40;;
78991;SDS011;72820;44.838;37.674;2024-02-15T03:25:41;16.02;;;6.38;;
78991;SDS011;72820;44.838;37.674;2024-02-15T03:26:44;14.57;;;5.97;;
78991;SDS011;72820;44.838;37.674;2024-02-15T03:27:46;14.02;;;6.32;;
78991;SDS011;72820;44.838;37.674;2024-02-15T03:28:47;14.50;;;5.93;;
78991;SDS011;72820;44.838;37.674;2024-02-15T03:29:49;14.25;;;6.03;;
78991;SDS011;72820;44.838;37.674;2024-02-15T03:30:50;14.77;;;5.47;;
78991;SDS011;72820;44.838;37.674;2024-02-15T03:31:53;15.07;;;6.15;;
78991;SDS011;72820;44.838;37.674;2024-02-15T03:32:55;16.48;;;6.00;;
78991;SDS011;72820;44.838;37.674;2024-02-15T03:33:57;14.05;;;6.20;;
78991;SDS011;72820;44.838;37.674;2024-02-15T03:35:00;15.32;;;5.80;;
78991;SDS011;72820;44.838;37.674;2024-02-15T03:36:02;14.27;;;6.45;;
78991;SDS011;72820;44.838;37.674;2024-02-15T03:37:03;14.48;;;5.25;;
78991;SDS011;72820;44.838;37.674;2024-02-15T03:38:05;15.15;;;5.35;;
78991;SDS011;72820;44.838;37.674;2024-02-15T03:39:07;10.25;;;5.07;;
78991;SDS011;72820;44.838;37.674;2024-02-15T03:40:09;14.35;;;5.35;;
78991;SDS011;72820;44.838;37.674;2024-02-15T03:41:10;16.15;;;5.75;;
78991;SDS011;72820;44.838;37.674;2024-02-15T03:42:12;15.15;;;6.32;;
78991;SDS011;72820;44.838;37.674;2024-02-15T03:43:13;15.32;;;5.97;;
78991;SDS011;72820;44.838;37.674;2024-02-15T03:44:15;14.05;;;6.25;;
78991;SDS011;72820;44.838;37.674;2024-02-15T03:45:19;13.93;;;5.90;;
78991;SDS011;72820;44.838;37.674;2024-02-15T03:46:21;12.20;;;4.85;;
78991;SDS011;72820;44.838;37.674;2024-02-15T03:47:24;16.23;;;6.32;;
78991;SDS011;72820;44.838;37.674;2024-02-15T03:48:26;14.38;;;5.80;;
78991;SDS011;72820;44.838;37.674;2024-02-15T03:49:27;17.27;;;5.50;;
78991;SDS011;72820;44.838;37.674;2024-02-15T03:50:28;15.82;;;5.65;;
78991;SDS011;72820;44.838;37.674;2024-02-15T03:51:30;14.98;;;5.60;;
78991;SDS011;72820;44.838;37.674;2024-02-15T03:52:33;13.00;;;5.85;;
78991;SDS011;72820;44.838;37.674;2024-02-15T03:53:34;15.55;;;7.13;;
78991;SDS011;72820;44.838;37.674;2024-02-15T03:54:38;16.63;;;6.15;;
78991;SDS011;72820;44.838;37.674;2024-02-15T03:55:39;15.38;;;6.03;;
78991;SDS011;72820;44.838;37.674;2024-02-15T03:56:47;14.93;;;6.40;;
78991;SDS011;72820;44.838;37.674;2024-02-15T03:57:55;14.68;;;6.85;;
78991;SDS011;72820;44.838;37.674;2024-02-15T03:58:58;14.40;;;5.45;;
78991;SDS011;72820;44.838;37.674;2024-02-15T04:00:00;18.02;;;7.40;;
78991;SDS011;72820;44.838;37.674;2024-02-15T04:01:02;16.70;;;6.43;;
78991;SDS011;72820;44.838;37.674;2024-02-15T04:02:07;14.15;;;5.82;;
78991;SDS011;72820;44.838;37.674;2024-02-15T04:03:13;14.15;;;5.47;;
78991;SDS011;72820;44.838;37.674;2024-02-15T04:04:15;14.55;;;5.53;;
78991;SDS011;72820;44.838;37.674;2024-02-15T04:05:16;13.98;;;5.95;;
78991;SDS011;72820;44.838;37.674;2024-02-15T04:06:19;15.20;;;6.65;;
78991;SDS011;72820;44.838;37.674;2024-02-15T04:07:21;16.67;;;6.40;;
78991;SDS011;72820;44.838;37.674;2024-02-15T04:08:25;19.30;;;6.78;;
78991;SDS011;72820;44.838;37.674;2024-02-15T04:09:26;15.88;;;5.90;;
78991;SDS011;72820;44.838;37.674;2024-02-15T04:10:28;15.05;;;6.15;;
78991;SDS011;72820;44.838;37.674;2024-02-15T04:11:34;17.67;;;6.78;;
78991;SDS011;72820;44.838;37.674;2024-02-15T04:12:35;12.85;;;5.25;;
78991;SDS011;72820;44.838;37.674;2024-02-15T04:13:37;14.63;;;5.88;;
78991;SDS011;72820;44.838;37.674;2024-02-15T04:14:43;20.88;;;6.60;;
78991;SDS011;72820;44.838;37.674;2024-02-15T04:15:47;18.42;;;5.55;;
78991;SDS011;72820;44.838;37.674;2024-02-15T04:16:50;16.90;;;6.47;;
78991;SDS011;72820;44.838;37.674;2024-02-15T04:17:51;16.50;;;6.15;;
78991;SDS011;72820;44.838;37.674;2024-02-15T04:18:56;15.65;;;6.28;;
78991;SDS011;72820;44.838;37.674;2024-02-15T04:19:58;19.30;;;6.50;;
78991;SDS011;72820;44.838;37.674;2024-02-15T04:21:00;14.95;;;5.72;;
78991;SDS011;72820;44.838;37.674;2024-02-15T04:22:01;15.48;;;5.90;;
78991;SDS011;72820;44.838;37.674;2024-02-15T04:23:05;15.65;;;5.82;;
78991;SDS011;72820;44.838;37.674;2024-02-15T04:24:06;17.65;;;6.32;;
78991;SDS011;72820;44.838;37.674;2024-02-15T04:25:08;19.77;;;6.07;;
78991;SDS011;72820;44.838;37.674;2024-02-15T04:26:17;15.48;;;5.95;;
78991;SDS011;72820;44.838;37.674;2024-02-15T04:27:20;17.92;;;7.00;;
78991;SDS011;72820;44.838;37.674;2024-02-15T04:28:22;17.35;;;7.53;;
78991;SDS011;72820;44.838;37.674;2024-02-15T04:29:23;15.93;;;6.40;;
78991;SDS011;72820;44.838;37.674;2024-02-15T04:30:25;17.50;;;6.47;;
78991;SDS011;72820;44.838;37.674;2024-02-15T04:31:26;15.73;;;6.05;;
78991;SDS011;72820;44.838;37.674;2024-02-15T04:32:28;12.93;;;6.05;;
78991;SDS011;72820;44.838;37.674;2024-02-15T04:33:34;18.02;;;5.55;;
78991;SDS011;72820;44.838;37.674;2024-02-15T04:34:36;16.35;;;6.15;;
78991;SDS011;72820;44.838;37.674;2024-02-15T04:35:37;16.33;;;5.80;;
78991;SDS011;72820;44.838;37.674;2024-02-15T04:36:39;13.70;;;5.65;;
78991;SDS011;72820;44.838;37.674;2024-02-15T04:37:41;15.40;;;5.45;;
78991;SDS011;72820;44.838;37.674;2024-02-15T04:38:43;17.70;;;5.60;;
78991;SDS011;72820;44.838;37.674;2024-02-15T04:39:45;20.33;;;6.07;;
78991;SDS011;72820;44.838;37.674;2024-02-15T04:40:47;14.27;;;5.93;;
78991;SDS011;72820;44.838;37.674;2024-02-15T04:41:52;13.85;;;5.00;;
78991;SDS011;72820;44.838;37.674;2024-02-15T04:42:56;17.05;;;6.93;;
78991;SDS011;72820;44.838;37.674;2024-02-15T04:43:59;17.98;;;5.97;;
78991;SDS011;72820;44.838;37.674;2024-02-15T04:45:00;15.90;;;6.22;;
78991;SDS011;72820;44.838;37.674;2024-02-15T04:46:04;17.45;;;6.15;;
78991;SDS011;72820;44.838;37.674;2024-02-15T04:47:08;15.05;;;5.40;;
78991;SDS011;72820;44.838;37.674;2024-02-15T04:48:09;16.92;;;6.10;;
78991;SDS011;72820;44.838;37.674;2024-02-15T04:49:11;18.02;;;5.90;;
78991;SDS011;72820;44.838;37.674;2024-02-15T04:50:12;13.45;;;4.85;;
78991;SDS011;72820;44.838;37.674;2024-02-15T04:51:14;15.85;;;6.22;;
78991;SDS011;72820;44.838;37.674;2024-02-15T04:52:17;18.05;;;6.43;;
78991;SDS011;72820;44.838;37.674;2024-02-15T04:53:18;15.70;;;6.15;;
78991;SDS011;72820;44.838;37.674;2024-02-15T04:54:20;16.00;;;6.70;;
78991;SDS011;72820;44.838;37.674;2024-02-15T04:55:22;18.60;;;6.50;;
78991;SDS011;72820;44.838;37.674;2024-02-15T04:56:24;14.82;;;6.07;;
78991;SDS011;72820;44.838;37.674;2024-02-15T04:57:25;13.57;;;6.20;;
78991;SDS011;72820;44.838;37.674;2024-02-15T04:58:28;41.30;;;8.10;;
78991;SDS011;72820;44.838;37.674;2024-02-15T04:59:30;16.50;;;5.90;;
78991;SDS011;72820;44.838;37.674;2024-02-15T05:00:31;26.75;;;9.75;;
78991;SDS011;72820;44.838;37.674;2024-02-15T05:01:33;22.83;;;9.63;;
78991;SDS011;72820;44.838;37.674;2024-02-15T05:02:35;17.10;;;6.90;;
78991;SDS011;72820;44.838;37.674;2024-02-15T05:03:44;15.23;;;6.05;;
78991;SDS011;72820;44.838;37.674;2024-02-15T05:04:46;15.90;;;6.97;;
78991;SDS011;72820;44.838;37.674;2024-02-15T05:05:47;17.15;;;6.43;;
78991;SDS011;72820;44.838;37.674;2024-02-15T05:06:48;19.05;;;5.57;;
78991;SDS011;72820;44.838;37.674;2024-02-15T05:07:50;14.65;;;5.43;;
78991;SDS011;72820;44.838;37.674;2024-02-15T05:08:51;16.00;;;5.45;;
78991;SDS011;72820;44.838;37.674;2024-02-15T05:09:53;13.50;;;5.13;;
78991;SDS011;72820;44.838;37.674;2024-02-15T05:10:54;16.13;;;6.07;;
78991;SDS011;72820;44.838;37.674;2024-02-15T05:11:59;36.05;;;9.80;;
78991;SDS011;72820;44.838;37.674;2024-02-15T05:13:03;15.18;;;5.55;;
78991;SDS011;72820;44.838;37.674;2024-02-15T05:14:04;17.38;;;5.55;;
78991;SDS011;72820;44.838;37.674;2024-02-15T05:15:09;14.50;;;5.38;;
78991;SDS011;72820;44.838;37.674;2024-02-15T05:16:11;14.60;;;5.30;;
78991;SDS011;72820;44.838;37.674;2024-02-15T05:17:13;16.90;;;6.15;;
78991;SDS011;72820;44.838;37.674;2024-02-15T05:18:15;15.45;;;5.97;;
78991;SDS011;72820;44.838;37.674;2024-02-15T05:19:17;15.43;;;5.40;;
78991;SDS011;72820;44.838;37.674;2024-02-15T05:20:19;14.98;;;5.60;;
78991;SDS011;72820;44.838;37.674;2024-02-15T05:21:21;16.08;;;6.05;;
78991;SDS011;72820;44.838;37.674;2024-02-15T05:22:25;15.88;;;5.32;;
78991;SDS011;72820;44.838;37.674;2024-02-15T05:23:30;14.23;;;4.78;;
78991;SDS011;72820;44.838;37.674;2024-02-15T05:24:31;17.70;;;5.47;;
78991;SDS011;72820;44.838;37.674;2024-02-15T05:25:35;15.77;;;5.68;;
78991;SDS011;72820;44.838;37.674;2024-02-15T05:26:37;17.80;;;5.57;;
78991;SDS011;72820;44.838;37.674;2024-02-15T05:27:38;15.23;;;5.45;;
78991;SDS011;72820;44.838;37.674;2024-02-15T05:28:39;15.20;;;5.95;;
78991;SDS011;72820;44.838;37.674;2024-02-15T05:29:41;19.38;;;6.03;;
78991;SDS011;72820;44.838;37.674;2024-02-15T05:30:44;19.17;;;5.72;;
78991;SDS011;72820;44.838;37.674;2024-02-15T05:31:46;14.77;;;5.30;;
78991;SDS011;72820;44.838;37.674;2024-02-15T05:32:47;16.23;;;6.25;;
78991;SDS011;72820;44.838;37.674;2024-02-15T05:33:50;17.58;;;6.78;;
78991;SDS011;72820;44.838;37.674;2024-02-15T05:34:54;16.50;;;5.97;;
78991;SDS011;72820;44.838;37.674;2024-02-15T05:35:55;18.30;;;6.10;;
78991;SDS011;72820;44.838;37.674;2024-02-15T05:36:57;15.85;;;6.43;;
78991;SDS011;72820;44.838;37.674;2024-02-15T05:37:58;19.98;;;5.90;;
78991;SDS011;72820;44.838;37.674;2024-02-15T05:39:00;19.08;;;6.38;;
78991;SDS011;72820;44.838;37.674;2024-02-15T05:40:03;15.60;;;5.95;;
78991;SDS011;72820;44.838;37.674;2024-02-15T05:41:05;15.80;;;6.05;;
78991;SDS011;72820;44.838;37.674;2024-02-15T05:42:09;17.60;;;5.78;;
78991;SDS011;72820;44.838;37.674;2024-02-15T05:43:11;14.70;;;5.78;;
78991;SDS011;72820;44.838;37.674;2024-02-15T05:44:14;14.95;;;5.50;;
78991;SDS011;72820;44.838;37.674;2024-02-15T05:46:30;16.27;;;5.50;;
78991;SDS011;72820;44.838;37.674;2024-02-15T05:47:31;18.20;;;5.50;;
78991;SDS011;72820;44.838;37.674;2024-02-15T05:48:33;17.20;;;6.40;;
78991;SDS011;72820;44.838;37.674;2024-02-15T05:49:36;22.63;;;6.25;;
78991;SDS011;72820;44.838;37.674;2024-02-15T05:50:38;14.02;;;5.50;;
78991;SDS011;72820;44.838;37.674;2024-02-15T05:51:39;15.85;;;5.68;;
78991;SDS011;72820;44.838;37.674;2024-02-15T05:52:40;14.73;;;5.63;;
78991;SDS011;72820;44.838;37.674;2024-02-15T05:53:42;17.55;;;5.38;;
78991;SDS011;72820;44.838;37.674;2024-02-15T05:54:44;17.23;;;5.85;;
78991;SDS011;72820;44.838;37.674;2024-02-15T05:55:46;13.10;;;4.70;;
78991;SDS011;72820;44.838;37.674;2024-02-15T05:56:50;19.50;;;6.47;;
78991;SDS011;72820;44.838;37.674;2024-02-15T05:57:54;15.07;;;5.25;;
78991;SDS011;72820;44.838;37.674;2024-02-15T05:58:55;23.30;;;5.90;;
78991;SDS011;72820;44.838;37.674;2024-02-15T05:59:57;18.35;;;5.95;;
78991;SDS011;72820;44.838;37.674;2024-02-15T06:01:05;17.13;;;6.20;;
78991;SDS011;72820;44.838;37.674;2024-02-15T06:02:07;17.23;;;4.95;;
78991;SDS011;72820;44.838;37.674;2024-02-15T06:03:08;14.20;;;4.40;;
78991;SDS011;72820;44.838;37.674;2024-02-15T06:04:10;12.63;;;4.05;;
78991;SDS011;72820;44.838;37.674;2024-02-15T06:05:11;15.70;;;4.82;;
78991;SDS011;72820;44.838;37.674;2024-02-15T06:06:13;17.70;;;4.80;;
78991;SDS011;72820;44.838;37.674;2024-02-15T06:07:14;18.23;;;5.25;;